createdAt,value
2022-11-07T00:00:50.183Z,13.00
2022-11-07T00:03:20.039Z,13.07
2022-11-07T00:05:49.531Z,12.93
2022-11-07T00:08:19.227Z,14.20
2022-11-07T00:10:50.126Z,12.57
2022-11-07T00:13:19.525Z,13.45
2022-11-07T00:15:48.931Z,13.77
2022-11-07T00:18:18.436Z,14.85
2022-11-07T00:20:47.796Z,12.90
2022-11-07T00:23:17.382Z,12.60
2022-11-07T00:25:48.366Z,12.45
2022-11-07T00:28:17.884Z,13.13
2022-11-07T00:30:47.216Z,14.15
2022-11-07T00:33:16.740Z,13.57
2022-11-07T00:35:46.174Z,13.15
2022-11-07T00:38:15.631Z,13.60
2022-11-07T00:40:44.879Z,13.93
2022-11-07T00:43:16.124Z,14.10
2022-11-07T00:45:45.961Z,12.73
2022-11-07T00:51:19.748Z,13.70
2022-11-07T00:53:49.892Z,13.93
2022-11-07T00:56:22.188Z,13.10
2022-11-07T00:58:54.842Z,14.57
2022-11-07T01:04:12.842Z,14.23
2022-11-07T01:06:46.362Z,13.15
2022-11-07T01:09:19.385Z,12.95
2022-11-07T01:11:50.618Z,14.38
2022-11-07T01:14:23.316Z,13.75
2022-11-07T01:19:22.891Z,18.13
2022-11-07T01:21:53.781Z,28.58
2022-11-07T01:24:23.262Z,21.60
2022-11-07T01:26:52.918Z,21.08
2022-11-07T01:29:22.861Z,21.90
2022-11-07T01:31:52.337Z,19.85
2022-11-07T01:34:21.684Z,19.33
2022-11-07T01:36:53.995Z,21.30
2022-11-07T01:39:23.329Z,21.05
2022-11-07T01:41:53.009Z,20.05
2022-11-07T01:44:55.761Z,20.58
2022-11-07T01:47:29.985Z,21.25
2022-11-07T01:50:01.251Z,22.23
2022-11-07T01:52:37.629Z,21.40
2022-11-07T01:55:13.704Z,20.95
2022-11-07T01:57:49.173Z,18.10
2022-11-07T02:00:22.290Z,19.98
2022-11-07T02:02:56.532Z,17.80
2022-11-07T02:05:32.719Z,21.10
2022-11-07T02:08:06.483Z,22.08
2022-11-07T02:10:37.578Z,18.73
2022-11-07T02:13:07.968Z,16.63
2022-11-07T02:15:39.161Z,15.35
2022-11-07T02:18:08.596Z,14.73
2022-11-07T02:20:38.217Z,16.90
2022-11-07T02:23:15.233Z,17.02
2022-11-07T02:25:46.623Z,17.38
2022-11-07T02:28:17.582Z,15.73
2022-11-07T02:30:47.166Z,16.98
2022-11-07T02:33:21.998Z,16.27
2022-11-07T02:35:53.717Z,16.58
2022-11-07T02:38:26.802Z,16.25
2022-11-07T02:41:03.488Z,16.95
2022-11-07T02:43:35.334Z,16.27
2022-11-07T02:46:09.356Z,16.93
2022-11-07T02:48:45.637Z,16.83
2022-11-07T02:51:15.265Z,17.90
2022-11-07T02:53:44.911Z,18.88
2022-11-07T02:56:16.548Z,16.33
2022-11-07T02:58:46.148Z,17.10
2022-11-07T03:01:16.512Z,16.95
2022-11-07T03:03:52.353Z,15.65
2022-11-07T03:06:24.773Z,18.17
2022-11-07T03:08:54.578Z,17.02
2022-11-07T03:11:25.363Z,15.45
2022-11-07T03:13:56.993Z,14.68
2022-11-07T03:16:26.396Z,13.85
2022-11-07T03:18:55.755Z,13.98
2022-11-07T03:21:25.169Z,13.70
2022-11-07T03:23:54.538Z,18.83
2022-11-07T03:26:25.454Z,18.30
2022-11-07T03:28:54.851Z,16.73
2022-11-07T03:31:24.243Z,17.05
2022-11-07T03:33:53.971Z,17.00
2022-11-07T03:36:23.389Z,15.45
2022-11-07T03:38:52.869Z,15.23
2022-11-07T03:41:23.902Z,14.18
2022-11-07T03:43:54.180Z,14.32
2022-11-07T03:46:23.735Z,15.63
2022-11-07T03:52:16.053Z,15.80
2022-11-07T03:54:45.622Z,14.68
2022-11-07T03:57:15.137Z,14.38
2022-11-07T03:59:44.420Z,13.65
2022-11-07T04:02:14.055Z,15.20
2022-11-07T04:04:43.503Z,15.27
2022-11-07T04:07:14.379Z,16.58
2022-11-07T04:09:43.687Z,16.17
2022-11-07T04:12:30.856Z,16.83
2022-11-07T04:15:17.838Z,16.25
2022-11-07T04:17:47.096Z,19.38
2022-11-07T04:20:16.544Z,25.83
2022-11-07T04:22:47.260Z,21.27
2022-11-07T04:25:17.129Z,22.10
2022-11-07T04:27:47.105Z,22.35
2022-11-07T04:30:25.089Z,22.00
2022-11-07T04:32:57.273Z,23.55
2022-11-07T04:35:29.341Z,24.40
2022-11-07T04:38:00.546Z,18.73
2022-11-07T04:40:31.236Z,19.15
2022-11-07T04:43:00.727Z,21.25
2022-11-07T04:45:30.237Z,21.15
2022-11-07T04:47:59.657Z,18.33
2022-11-07T04:50:29.068Z,17.27
2022-11-07T04:52:59.827Z,16.23
2022-11-07T04:55:31.667Z,13.90
2022-11-07T04:58:01.289Z,15.80
2022-11-07T05:00:30.639Z,14.50
2022-11-07T05:03:01.252Z,14.23
2022-11-07T05:05:31.404Z,14.48
2022-11-07T05:08:02.217Z,13.70
2022-11-07T05:10:32.135Z,13.80
2022-11-07T05:13:01.612Z,14.23
2022-11-07T05:15:31.009Z,14.73
2022-11-07T05:18:00.429Z,13.50
2022-11-07T05:20:33.653Z,14.77
2022-11-07T05:23:13.284Z,13.38
2022-11-07T05:25:44.327Z,12.77
2022-11-07T05:28:15.236Z,12.30
2022-11-07T05:30:46.377Z,14.43
2022-11-07T05:33:18.925Z,12.88
2022-11-07T05:38:19.575Z,13.27
2022-11-07T05:40:48.980Z,13.25
2022-11-07T05:43:18.513Z,12.68
2022-11-07T05:45:48.174Z,13.45
2022-11-07T05:48:17.569Z,13.55
2022-11-07T05:50:47.056Z,13.68
2022-11-07T05:53:18.253Z,13.70
2022-11-07T05:55:47.889Z,13.15
2022-11-07T05:58:17.153Z,12.68
2022-11-07T06:00:46.770Z,12.43
2022-11-07T06:03:16.811Z,13.68
2022-11-07T06:05:46.813Z,13.10
2022-11-07T06:08:18.226Z,13.25
2022-11-07T06:10:47.594Z,14.23
2022-11-07T06:13:18.989Z,13.98
2022-11-07T06:15:48.757Z,12.55
2022-11-07T06:18:21.453Z,10.98
2022-11-07T06:20:51.264Z,11.57
2022-11-07T06:23:22.134Z,12.73
2022-11-07T06:25:53.286Z,14.60
2022-11-07T06:28:22.542Z,14.43
2022-11-07T06:30:52.028Z,13.00
2022-11-07T06:33:22.184Z,13.82
2022-11-07T06:35:51.547Z,13.15
2022-11-07T06:38:22.245Z,12.95
2022-11-07T06:40:51.770Z,11.55
2022-11-07T06:43:21.994Z,13.05
2022-11-07T06:45:51.439Z,12.77
2022-11-07T06:48:20.834Z,14.73
2022-11-07T06:52:17.084Z,14.45
2022-11-07T06:54:46.669Z,14.83
2022-11-07T06:57:16.144Z,15.43
2022-11-07T06:59:51.324Z,15.32
2022-11-07T07:02:51.840Z,15.48
2022-11-07T07:05:11.164Z,15.23
2022-11-07T07:07:42.080Z,16.17
2022-11-07T07:10:12.259Z,17.35
2022-11-07T07:12:41.931Z,17.27
2022-11-07T07:15:12.049Z,17.17
2022-11-07T07:17:41.421Z,17.95
2022-11-07T07:20:12.937Z,17.58
2022-11-07T07:22:45.401Z,17.77
2022-11-07T07:25:14.860Z,17.90
2022-11-07T07:27:44.259Z,17.05
2022-11-07T07:30:15.601Z,16.20
2022-11-07T07:32:44.987Z,17.48
2022-11-07T07:35:14.392Z,18.48
2022-11-07T07:37:45.186Z,20.58
2022-11-07T07:40:15.080Z,21.42
2022-11-07T07:42:45.460Z,20.20
2022-11-07T07:45:16.483Z,19.13
2022-11-07T07:47:46.105Z,18.35
2022-11-07T07:50:15.768Z,18.48
2022-11-07T07:52:46.490Z,17.33
2022-11-07T07:55:15.939Z,17.50
2022-11-07T07:57:45.346Z,17.13
2022-11-07T08:00:16.209Z,18.17
2022-11-07T08:02:45.523Z,16.75
2022-11-07T08:05:16.690Z,18.08
2022-11-07T08:07:52.666Z,15.80
2022-11-07T08:13:13.089Z,16.25
2022-11-07T08:15:42.655Z,16.42
2022-11-07T08:18:12.228Z,16.92
2022-11-07T08:20:41.896Z,16.60
2022-11-07T08:23:16.801Z,16.33
2022-11-07T08:25:52.678Z,17.02
2022-11-07T08:28:23.982Z,17.00
2022-11-07T08:31:01.472Z,14.85
2022-11-07T08:33:31.645Z,15.52
2022-11-07T08:36:03.051Z,16.25
2022-11-07T08:38:35.892Z,15.38
2022-11-07T08:41:07.889Z,16.52
2022-11-07T08:43:37.353Z,16.08
2022-11-07T08:46:07.138Z,15.77
2022-11-07T08:48:36.835Z,14.55
2022-11-07T08:51:06.527Z,15.18
2022-11-07T08:53:37.617Z,14.32
2022-11-07T08:56:10.631Z,14.77
2022-11-07T08:58:40.805Z,13.18
2022-11-07T09:01:11.833Z,13.70
2022-11-07T09:03:47.855Z,13.57
2022-11-07T09:06:20.719Z,14.20
2022-11-07T09:08:51.539Z,13.77
2022-11-07T09:11:22.162Z,13.65
2022-11-07T09:13:51.493Z,13.27
2022-11-07T09:16:20.957Z,13.32
2022-11-07T09:18:53.667Z,13.68
2022-11-07T09:21:23.300Z,13.75
2022-11-07T09:23:54.740Z,12.48
2022-11-07T09:26:24.265Z,13.77
2022-11-07T09:28:58.629Z,12.98
2022-11-07T09:31:30.374Z,13.82
2022-11-07T09:33:59.717Z,12.80
2022-11-07T09:36:29.062Z,12.95
2022-11-07T09:39:01.275Z,13.25
2022-11-07T09:41:45.483Z,13.30
2022-11-07T09:44:37.471Z,11.77
2022-11-07T09:47:19.389Z,13.13
2022-11-07T09:52:23.791Z,12.80
2022-11-07T09:55:01.007Z,12.98
2022-11-07T09:57:35.074Z,13.85
2022-11-07T10:00:11.522Z,12.63
2022-11-07T10:02:46.261Z,12.25
2022-11-07T10:05:20.571Z,12.65
2022-11-07T10:08:02.301Z,11.88
2022-11-07T10:10:41.518Z,11.57
2022-11-07T10:13:45.874Z,12.15
2022-11-07T10:16:25.040Z,12.27
2022-11-07T10:19:08.125Z,12.23
2022-11-07T10:21:47.391Z,12.07
2022-11-07T10:24:32.616Z,11.05
2022-11-07T10:27:04.448Z,11.52
2022-11-07T10:29:45.198Z,13.30
2022-11-07T10:32:24.599Z,11.55
2022-11-07T10:35:07.691Z,11.50
2022-11-07T10:37:37.129Z,11.93
2022-11-07T10:40:18.079Z,11.75
2022-11-07T10:42:49.300Z,12.43
2022-11-07T10:45:20.523Z,12.25
2022-11-07T10:48:02.637Z,12.20
2022-11-07T10:50:32.628Z,11.32
2022-11-07T10:53:05.795Z,11.43
2022-11-07T10:55:47.787Z,11.32
2022-11-07T10:58:22.018Z,11.27
2022-11-07T11:01:07.352Z,11.45
2022-11-07T11:03:44.733Z,11.85
2022-11-07T11:06:26.642Z,12.07
2022-11-07T11:08:56.061Z,11.65
2022-11-07T11:11:32.836Z,11.43
2022-11-07T11:14:14.427Z,11.15
2022-11-07T11:16:45.454Z,13.25
2022-11-07T11:19:25.531Z,11.40
2022-11-07T11:21:57.635Z,11.80
2022-11-07T11:24:37.654Z,10.38
2022-11-07T11:27:18.910Z,11.10
2022-11-07T11:29:58.683Z,11.30
2022-11-07T11:32:34.321Z,11.40
2022-11-07T11:35:21.437Z,11.18
2022-11-07T11:38:02.228Z,11.55
2022-11-07T11:40:38.358Z,11.88
2022-11-07T11:43:21.473Z,12.45
2022-11-07T11:46:15.252Z,11.32
2022-11-07T11:48:52.066Z,12.75
2022-11-07T11:51:28.579Z,11.77
2022-11-07T11:53:58.948Z,12.25
2022-11-07T11:56:41.472Z,11.18
2022-11-07T11:59:47.814Z,12.77
2022-11-07T12:03:00.046Z,12.07
2022-11-07T12:06:04.261Z,12.82
2022-11-07T12:08:58.860Z,11.25
2022-11-07T12:11:38.560Z,12.30
2022-11-07T12:14:35.862Z,11.00
2022-11-07T12:17:12.568Z,12.70
2022-11-07T12:19:51.654Z,12.52
2022-11-07T12:22:38.258Z,15.05
2022-11-07T12:25:17.065Z,11.93
2022-11-07T12:27:59.921Z,14.25
2022-11-07T12:30:42.827Z,13.00
2022-11-07T12:33:26.347Z,12.20
2022-11-07T12:36:03.465Z,11.95
2022-11-07T12:39:02.905Z,12.45
2022-11-07T12:41:44.759Z,12.60
2022-11-07T12:44:58.527Z,12.33
2022-11-07T12:47:50.976Z,12.02
2022-11-07T12:52:42.010Z,14.43
2022-11-07T12:55:24.207Z,12.80
2022-11-07T12:57:56.343Z,13.57
2022-11-07T13:00:30.219Z,13.20
2022-11-07T13:03:43.257Z,14.63
2022-11-07T13:06:20.226Z,12.90
2022-11-07T13:09:04.333Z,16.95
2022-11-07T13:11:43.988Z,13.02
2022-11-07T13:14:28.316Z,13.13
2022-11-07T13:17:20.237Z,12.57
2022-11-07T13:20:02.410Z,14.23
2022-11-07T13:22:37.688Z,13.73
2022-11-07T13:25:28.713Z,12.50
2022-11-07T13:28:27.087Z,13.10
2022-11-07T13:31:05.005Z,12.10
2022-11-07T13:33:38.427Z,12.77
2022-11-07T13:36:26.995Z,11.13
2022-11-07T13:39:00.731Z,12.13
2022-11-07T13:41:32.128Z,12.60
2022-11-07T13:44:04.778Z,11.13
2022-11-07T13:46:38.890Z,12.10
2022-11-07T13:49:16.939Z,11.45
2022-11-07T13:51:49.992Z,11.80
2022-11-07T13:54:27.627Z,12.80
2022-11-07T13:57:03.258Z,11.60
2022-11-07T13:59:46.236Z,11.68
2022-11-07T14:02:22.573Z,10.85
2022-11-07T14:07:47.964Z,12.85
2022-11-07T14:10:26.559Z,12.02
2022-11-07T14:13:07.666Z,12.30
2022-11-07T14:15:38.806Z,12.70
2022-11-07T14:18:12.870Z,12.13
2022-11-07T14:20:48.775Z,11.40
2022-11-07T14:23:21.537Z,11.63
2022-11-07T14:25:58.886Z,12.45
2022-11-07T14:28:36.282Z,11.80
2022-11-07T14:31:08.133Z,12.23
2022-11-07T14:33:37.612Z,11.43
2022-11-07T14:36:08.797Z,11.90
2022-11-07T14:38:38.660Z,12.02
2022-11-07T14:41:10.039Z,12.25
2022-11-07T14:43:41.396Z,13.07
2022-11-07T14:46:17.595Z,12.40
2022-11-07T14:48:50.112Z,11.55
2022-11-07T14:54:01.714Z,11.85
2022-11-07T14:56:35.546Z,10.90
2022-11-07T14:59:09.662Z,11.43
2022-11-07T15:01:39.226Z,11.10
2022-11-07T15:04:28.785Z,11.18
2022-11-07T15:06:59.560Z,10.43
2022-11-07T15:09:37.906Z,11.38
2022-11-07T15:12:18.934Z,11.75
2022-11-07T15:15:03.707Z,12.88
2022-11-07T15:17:37.736Z,12.80
2022-11-07T15:20:21.747Z,12.68
2022-11-07T15:22:51.222Z,12.32
2022-11-07T15:25:29.093Z,14.10
2022-11-07T15:27:58.703Z,12.70
2022-11-07T15:30:34.608Z,12.00
2022-11-07T15:33:04.179Z,12.70
2022-11-07T15:35:48.992Z,12.50
2022-11-07T15:38:22.051Z,13.10
2022-11-07T15:40:52.800Z,13.20
2022-11-07T15:43:23.548Z,12.50
2022-11-07T15:45:55.790Z,11.40
2022-11-07T15:48:30.149Z,12.18
2022-11-07T15:52:16.239Z,10.85
2022-11-07T15:54:45.610Z,11.25
2022-11-07T15:57:15.669Z,12.77
2022-11-07T15:59:45.167Z,11.75
2022-11-07T16:02:19.146Z,12.85
2022-11-07T16:04:48.671Z,11.15
2022-11-07T16:07:22.230Z,11.63
2022-11-07T16:09:52.077Z,10.55
2022-11-07T16:12:22.060Z,12.27
2022-11-07T16:14:51.390Z,10.82
2022-11-07T16:17:21.845Z,11.30
2022-11-07T16:19:51.238Z,10.27
2022-11-07T16:22:22.049Z,10.13
2022-11-07T16:24:51.521Z,11.10
2022-11-07T16:27:21.066Z,13.57
2022-11-07T16:29:50.682Z,12.07
2022-11-07T16:32:20.106Z,13.43
2022-11-07T16:34:49.499Z,11.32
2022-11-07T16:37:20.553Z,11.15
2022-11-07T16:39:50.181Z,12.32
2022-11-07T16:42:19.820Z,12.38
2022-11-07T16:44:49.362Z,11.27
2022-11-07T16:47:19.526Z,10.82
2022-11-07T16:49:52.174Z,12.00
2022-11-07T16:52:28.303Z,11.60
2022-11-07T16:54:57.765Z,12.98
2022-11-07T16:57:28.401Z,11.43
2022-11-07T16:59:57.969Z,9.57
2022-11-07T17:02:29.141Z,10.90
2022-11-07T17:04:58.803Z,10.93
2022-11-07T17:07:29.706Z,11.95
2022-11-07T17:09:59.205Z,10.68
2022-11-07T17:12:29.040Z,10.50
2022-11-07T17:14:58.437Z,11.93
2022-11-07T17:17:27.869Z,11.57
2022-11-07T17:19:57.326Z,11.20
2022-11-07T17:22:26.725Z,11.20
2022-11-07T17:24:57.691Z,10.25
2022-11-07T17:27:28.790Z,11.07
2022-11-07T17:29:58.413Z,10.13
2022-11-07T17:32:27.831Z,12.10
2022-11-07T17:35:25.559Z,13.98
2022-11-07T17:37:46.600Z,11.75
2022-11-07T17:40:25.113Z,11.52
2022-11-07T17:42:54.535Z,10.27
2022-11-07T17:45:24.120Z,11.13
2022-11-07T17:47:54.052Z,11.70
2022-11-07T17:50:24.705Z,14.30
2022-11-07T17:52:54.272Z,12.57
2022-11-07T17:55:25.687Z,11.88
2022-11-07T17:57:55.175Z,16.83
2022-11-07T18:00:27.630Z,16.95
2022-11-07T18:02:57.317Z,12.40
2022-11-07T18:05:32.773Z,11.00
2022-11-07T18:08:02.766Z,12.65
2022-11-07T18:10:33.666Z,11.57
2022-11-07T18:13:03.124Z,11.77
2022-11-07T18:15:32.658Z,11.75
2022-11-07T18:18:06.771Z,13.48
2022-11-07T18:20:39.321Z,10.68
2022-11-07T18:23:08.782Z,14.20
2022-11-07T18:25:39.690Z,10.25
2022-11-07T18:28:09.134Z,10.07
2022-11-07T18:30:38.602Z,11.23
2022-11-07T18:33:08.121Z,10.57
2022-11-07T18:35:37.489Z,12.25
2022-11-07T18:38:07.103Z,11.38
2022-11-07T18:40:36.606Z,12.55
2022-11-07T18:43:09.967Z,11.35
2022-11-07T18:45:43.894Z,11.40
2022-11-07T18:48:13.527Z,10.97
2022-11-07T18:52:15.648Z,10.85
2022-11-07T18:54:45.191Z,12.23
2022-11-07T18:57:14.706Z,11.52
2022-11-07T18:59:44.251Z,11.38
2022-11-07T19:02:15.410Z,11.45
2022-11-07T19:04:45.081Z,12.07
2022-11-07T19:07:15.867Z,11.73
2022-11-07T19:09:45.272Z,11.35
2022-11-07T19:12:14.704Z,12.35
2022-11-07T19:14:44.021Z,12.55
2022-11-07T19:17:13.915Z,12.23
2022-11-07T19:19:43.347Z,12.88
2022-11-07T19:22:13.965Z,11.70
2022-11-07T19:24:44.774Z,13.45
2022-11-07T19:27:14.330Z,17.60
2022-11-07T19:29:43.820Z,15.93
2022-11-07T19:32:13.475Z,17.52
2022-11-07T19:34:42.815Z,14.55
2022-11-07T19:37:12.236Z,14.32
2022-11-07T19:39:41.747Z,13.45
2022-11-07T19:42:12.599Z,12.50
2022-11-07T19:44:48.492Z,14.25
2022-11-07T19:47:20.072Z,15.18
2022-11-07T19:49:49.673Z,14.23
2022-11-07T19:52:19.089Z,13.25
2022-11-07T19:54:51.450Z,16.83
2022-11-07T19:57:22.331Z,17.48
2022-11-07T19:59:51.645Z,16.33
2022-11-07T20:02:43.025Z,15.63
2022-11-07T20:05:11.495Z,15.18
2022-11-07T20:07:40.931Z,17.70
2022-11-07T20:10:11.159Z,24.45
2022-11-07T20:12:42.030Z,18.20
2022-11-07T20:15:13.218Z,15.73
2022-11-07T20:17:43.102Z,16.20
2022-11-07T20:20:14.124Z,16.88
2022-11-07T20:22:48.901Z,18.55
2022-11-07T20:25:18.459Z,17.15
2022-11-07T20:27:49.494Z,17.00
2022-11-07T20:30:18.963Z,16.52
2022-11-07T20:32:48.475Z,15.18
2022-11-07T20:35:18.273Z,16.15
2022-11-07T20:37:47.631Z,42.08
2022-11-07T20:40:17.120Z,35.72
2022-11-07T20:42:48.027Z,18.88
2022-11-07T20:45:17.399Z,17.13
2022-11-07T20:47:46.858Z,16.30
2022-11-07T20:50:16.247Z,17.90
2022-11-07T20:52:46.209Z,19.23
2022-11-07T20:55:15.645Z,18.15
2022-11-07T20:57:45.118Z,17.63
2022-11-07T21:00:19.778Z,13.75
2022-11-07T21:02:49.160Z,17.50
2022-11-07T21:05:19.234Z,16.52
2022-11-07T21:07:48.927Z,23.88
2022-11-07T21:10:18.506Z,25.30
2022-11-07T21:12:47.980Z,30.35
2022-11-07T21:15:19.115Z,25.02
2022-11-07T21:17:48.590Z,22.02
2022-11-07T21:20:18.586Z,17.63
2022-11-07T21:22:51.847Z,20.95
2022-11-07T21:25:22.161Z,22.83
2022-11-07T21:27:52.033Z,19.33
2022-11-07T21:30:23.526Z,20.73
2022-11-07T21:32:53.022Z,21.33
2022-11-07T21:35:24.016Z,21.08
2022-11-07T21:37:53.407Z,19.75
2022-11-07T21:40:22.945Z,19.95
2022-11-07T21:42:55.138Z,19.38
2022-11-07T21:45:26.611Z,18.73
2022-11-07T21:47:56.490Z,15.60
2022-11-07T21:52:15.413Z,17.40
2022-11-07T21:54:44.775Z,13.07
2022-11-07T21:57:14.334Z,14.52
2022-11-07T21:59:43.730Z,16.45
2022-11-07T22:02:14.684Z,17.73
2022-11-07T22:04:44.054Z,16.95
2022-11-07T22:07:14.899Z,13.75
2022-11-07T22:09:44.233Z,15.00
2022-11-07T22:12:13.575Z,14.70
2022-11-07T22:14:43.169Z,17.50
2022-11-07T22:17:12.456Z,14.15
2022-11-07T22:19:41.770Z,14.93
2022-11-07T22:22:11.225Z,15.68
2022-11-07T22:24:41.910Z,14.05
2022-11-07T22:27:11.356Z,16.17
2022-11-07T22:29:40.651Z,16.88
2022-11-07T22:32:09.977Z,16.90
2022-11-07T22:34:39.396Z,16.38
2022-11-07T22:37:08.967Z,18.02
2022-11-07T22:39:38.433Z,21.65
2022-11-07T22:42:09.252Z,20.85
2022-11-07T22:44:38.533Z,17.90
2022-11-07T22:47:08.008Z,18.35
2022-11-07T22:49:37.571Z,17.77
2022-11-07T22:52:07.201Z,16.80
2022-11-07T22:54:36.487Z,16.92
2022-11-07T22:57:07.378Z,17.20
2022-11-07T22:59:36.842Z,17.33
2022-11-07T23:02:06.265Z,17.05
2022-11-07T23:04:35.783Z,15.13
2022-11-07T23:07:05.268Z,14.10
2022-11-07T23:09:34.864Z,14.90
2022-11-07T23:12:04.256Z,15.05
2022-11-07T23:14:35.139Z,16.05
2022-11-07T23:17:04.498Z,13.63
2022-11-07T23:19:33.830Z,13.93
2022-11-07T23:22:03.248Z,15.85
2022-11-07T23:24:32.711Z,15.65
2022-11-07T23:27:02.596Z,15.73
2022-11-07T23:29:33.444Z,17.45
2022-11-07T23:32:02.888Z,15.57
2022-11-07T23:34:32.601Z,16.08
2022-11-07T23:37:03.399Z,13.07
2022-11-07T23:39:32.677Z,13.68
2022-11-07T23:42:02.178Z,12.93
2022-11-07T23:44:31.431Z,13.07
2022-11-07T23:47:19.771Z,12.68
2022-11-07T23:50:17.929Z,12.77
2022-11-07T23:52:47.335Z,12.02
2022-11-07T23:55:33.986Z,12.65
2022-11-07T23:58:20.813Z,12.05
